sensor_id;sensor_type;location;lat;lon;timestamp;temperature;humidity
78536;SHT31;67829;51.968;5.684;2023-04-06T00:02:27;8.4;42.8
78536;SHT31;67829;51.968;5.684;2023-04-06T00:04:55;8.4;43.2
78536;SHT31;67829;51.968;5.684;2023-04-06T00:07:24;8.4;43.2
78536;SHT31;67829;51.968;5.684;2023-04-06T00:09:54;8.4;43.2
78536;SHT31;67829;51.968;5.684;2023-04-06T00:12:23;8.4;43.5
78536;SHT31;67829;51.968;5.684;2023-04-06T00:14:51;8.3;43.2
78536;SHT31;67829;51.968;5.684;2023-04-06T00:17:20;8.3;43.5
78536;SHT31;67829;51.968;5.684;2023-04-06T00:19:49;8.3;43.3
78536;SHT31;67829;51.968;5.684;2023-04-06T00:22:18;8.3;43.2
78536;SHT31;67829;51.968;5.684;2023-04-06T00:24:46;8.3;43.1
78536;SHT31;67829;51.968;5.684;2023-04-06T00:27:15;8.3;43.1
78536;SHT31;67829;51.968;5.684;2023-04-06T00:29:43;8.2;43.1
78536;SHT31;67829;51.968;5.684;2023-04-06T00:32:12;8.2;43.5
78536;SHT31;67829;51.968;5.684;2023-04-06T00:34:43;8.2;43.3
78536;SHT31;67829;51.968;5.684;2023-04-06T00:37:12;8.2;43.0
78536;SHT31;67829;51.968;5.684;2023-04-06T00:39:41;8.2;42.7
78536;SHT31;67829;51.968;5.684;2023-04-06T00:42:11;8.2;42.4
78536;SHT31;67829;51.968;5.684;2023-04-06T00:44:42;8.1;42.7
78536;SHT31;67829;51.968;5.684;2023-04-06T00:47:10;8.1;42.6
78536;SHT31;67829;51.968;5.684;2023-04-06T00:49:39;8.1;42.8
78536;SHT31;67829;51.968;5.684;2023-04-06T00:52:07;8.1;42.7
78536;SHT31;67829;51.968;5.684;2023-04-06T00:54:36;8.1;42.8
78536;SHT31;67829;51.968;5.684;2023-04-06T00:57:05;8.0;42.8
78536;SHT31;67829;51.968;5.684;2023-04-06T00:59:36;8.0;42.5
78536;SHT31;67829;51.968;5.684;2023-04-06T01:02:05;8.0;42.5
78536;SHT31;67829;51.968;5.684;2023-04-06T01:04:34;8.0;42.4
78536;SHT31;67829;51.968;5.684;2023-04-06T01:07:03;8.0;42.7
78536;SHT31;67829;51.968;5.684;2023-04-06T01:09:33;8.0;42.7
78536;SHT31;67829;51.968;5.684;2023-04-06T01:12:02;7.9;42.7
78536;SHT31;67829;51.968;5.684;2023-04-06T01:14:31;7.9;42.7
78536;SHT31;67829;51.968;5.684;2023-04-06T01:17:00;7.9;43.0
78536;SHT31;67829;51.968;5.684;2023-04-06T01:19:29;7.9;43.0
78536;SHT31;67829;51.968;5.684;2023-04-06T01:21:57;7.9;43.0
78536;SHT31;67829;51.968;5.684;2023-04-06T01:24:26;7.9;43.3
78536;SHT31;67829;51.968;5.684;2023-04-06T01:26:55;7.9;43.3
78536;SHT31;67829;51.968;5.684;2023-04-06T01:29:23;7.9;43.3
78536;SHT31;67829;51.968;5.684;2023-04-06T01:31:52;7.9;43.5
78536;SHT31;67829;51.968;5.684;2023-04-06T01:34:21;7.8;43.7
78536;SHT31;67829;51.968;5.684;2023-04-06T01:36:50;7.8;43.6
78536;SHT31;67829;51.968;5.684;2023-04-06T01:39:19;7.8;43.7
78536;SHT31;67829;51.968;5.684;2023-04-06T01:41:47;7.8;43.8
78536;SHT31;67829;51.968;5.684;2023-04-06T01:44:17;7.8;43.8
78536;SHT31;67829;51.968;5.684;2023-04-06T01:46:46;7.8;43.8
78536;SHT31;67829;51.968;5.684;2023-04-06T01:49:15;7.8;44.0
78536;SHT31;67829;51.968;5.684;2023-04-06T01:51:43;7.7;44.1
78536;SHT31;67829;51.968;5.684;2023-04-06T01:54:12;7.7;44.4
78536;SHT31;67829;51.968;5.684;2023-04-06T01:56:40;7.7;44.4
78536;SHT31;67829;51.968;5.684;2023-04-06T01:59:09;7.7;44.4
78536;SHT31;67829;51.968;5.684;2023-04-06T02:01:37;7.7;44.5
78536;SHT31;67829;51.968;5.684;2023-04-06T02:04:08;7.7;44.7
78536;SHT31;67829;51.968;5.684;2023-04-06T02:06:37;7.7;44.8
78536;SHT31;67829;51.968;5.684;2023-04-06T02:09:05;7.7;45.1
78536;SHT31;67829;51.968;5.684;2023-04-06T02:11:34;7.7;45.3
78536;SHT31;67829;51.968;5.684;2023-04-06T02:14:03;7.7;45.2
78536;SHT31;67829;51.968;5.684;2023-04-06T02:16:32;7.7;45.2
78536;SHT31;67829;51.968;5.684;2023-04-06T02:19:00;7.7;45.5
78536;SHT31;67829;51.968;5.684;2023-04-06T02:21:29;7.7;45.3
78536;SHT31;67829;51.968;5.684;2023-04-06T02:23:57;7.7;45.5
78536;SHT31;67829;51.968;5.684;2023-04-06T02:26:26;7.7;45.2
78536;SHT31;67829;51.968;5.684;2023-04-06T02:28:54;7.7;45.5
78536;SHT31;67829;51.968;5.684;2023-04-06T02:31:23;7.7;45.2
78536;SHT31;67829;51.968;5.684;2023-04-06T02:33:54;7.7;45.5
78536;SHT31;67829;51.968;5.684;2023-04-06T02:36:23;7.7;45.4
78536;SHT31;67829;51.968;5.684;2023-04-06T02:38:52;7.7;45.5
78536;SHT31;67829;51.968;5.684;2023-04-06T02:41:21;7.7;45.6
78536;SHT31;67829;51.968;5.684;2023-04-06T02:43:49;7.7;45.5
78536;SHT31;67829;51.968;5.684;2023-04-06T02:46:17;7.8;45.5
78536;SHT31;67829;51.968;5.684;2023-04-06T02:48:46;7.8;45.6
78536;SHT31;67829;51.968;5.684;2023-04-06T02:51:15;7.8;45.5
78536;SHT31;67829;51.968;5.684;2023-04-06T02:53:43;7.8;45.2
78536;SHT31;67829;51.968;5.684;2023-04-06T02:56:12;7.8;45.3
78536;SHT31;67829;51.968;5.684;2023-04-06T02:58:41;7.8;45.0
78536;SHT31;67829;51.968;5.684;2023-04-06T03:01:10;7.8;45.3
78536;SHT31;67829;51.968;5.684;2023-04-06T03:03:38;7.8;44.9
78536;SHT31;67829;51.968;5.684;2023-04-06T03:06:07;7.8;44.8
78536;SHT31;67829;51.968;5.684;2023-04-06T03:08:35;7.8;44.8
78536;SHT31;67829;51.968;5.684;2023-04-06T03:11:04;7.8;44.7
78536;SHT31;67829;51.968;5.684;2023-04-06T03:13:32;7.8;45.0
78536;SHT31;67829;51.968;5.684;2023-04-06T03:16:01;7.8;45.0
78536;SHT31;67829;51.968;5.684;2023-04-06T03:18:30;7.8;45.0
78536;SHT31;67829;51.968;5.684;2023-04-06T03:20:58;7.8;45.0
78536;SHT31;67829;51.968;5.684;2023-04-06T03:23:28;7.8;45.1
78536;SHT31;67829;51.968;5.684;2023-04-06T03:25:56;7.8;44.8
78536;SHT31;67829;51.968;5.684;2023-04-06T03:28:25;7.8;44.8
78536;SHT31;67829;51.968;5.684;2023-04-06T03:30:54;7.8;44.7
78536;SHT31;67829;51.968;5.684;2023-04-06T03:33:22;7.8;44.8
78536;SHT31;67829;51.968;5.684;2023-04-06T03:35:53;7.8;44.7
78536;SHT31;67829;51.968;5.684;2023-04-06T03:38:22;7.8;45.0
78536;SHT31;67829;51.968;5.684;2023-04-06T03:40:51;7.8;44.7
78536;SHT31;67829;51.968;5.684;2023-04-06T03:43:19;7.8;45.0
78536;SHT31;67829;51.968;5.684;2023-04-06T03:45:48;7.8;44.8
78536;SHT31;67829;51.968;5.684;2023-04-06T03:48:17;7.9;44.7
78536;SHT31;67829;51.968;5.684;2023-04-06T03:50:45;7.9;44.5
78536;SHT31;67829;51.968;5.684;2023-04-06T03:53:13;7.9;44.6
78536;SHT31;67829;51.968;5.684;2023-04-06T03:55:42;7.9;44.6
78536;SHT31;67829;51.968;5.684;2023-04-06T03:58:11;7.9;44.7
78536;SHT31;67829;51.968;5.684;2023-04-06T04:00:39;7.9;44.4
78536;SHT31;67829;51.968;5.684;2023-04-06T04:03:08;7.9;44.7
78536;SHT31;67829;51.968;5.684;2023-04-06T04:05:38;7.9;44.5
78536;SHT31;67829;51.968;5.684;2023-04-06T04:08:07;7.9;44.7
78536;SHT31;67829;51.968;5.684;2023-04-06T04:10:36;7.9;44.9
78536;SHT31;67829;51.968;5.684;2023-04-06T04:13:04;7.9;44.7
78536;SHT31;67829;51.968;5.684;2023-04-06T04:15:33;7.9;44.7
78536;SHT31;67829;51.968;5.684;2023-04-06T04:18:01;7.9;45.0
78536;SHT31;67829;51.968;5.684;2023-04-06T04:20:30;7.9;45.2
78536;SHT31;67829;51.968;5.684;2023-04-06T04:22:58;7.9;45.4
78536;SHT31;67829;51.968;5.684;2023-04-06T04:25:27;7.9;45.5
78536;SHT31;67829;51.968;5.684;2023-04-06T04:27:56;7.9;45.4
78536;SHT31;67829;51.968;5.684;2023-04-06T04:30:24;7.9;45.6
78536;SHT31;67829;51.968;5.684;2023-04-06T04:32:55;7.9;45.6
78536;SHT31;67829;51.968;5.684;2023-04-06T04:35:23;7.9;45.5
78536;SHT31;67829;51.968;5.684;2023-04-06T04:37:52;7.9;45.5
78536;SHT31;67829;51.968;5.684;2023-04-06T04:40:20;7.8;45.7
78536;SHT31;67829;51.968;5.684;2023-04-06T04:42:49;7.8;45.7
78536;SHT31;67829;51.968;5.684;2023-04-06T04:45:18;7.8;46.0
78536;SHT31;67829;51.968;5.684;2023-04-06T04:47:47;7.8;46.0
78536;SHT31;67829;51.968;5.684;2023-04-06T04:50:15;7.8;45.9
78536;SHT31;67829;51.968;5.684;2023-04-06T04:52:44;7.8;46.1
78536;SHT31;67829;51.968;5.684;2023-04-06T04:55:13;7.8;46.0
78536;SHT31;67829;51.968;5.684;2023-04-06T04:57:42;7.8;46.1
78536;SHT31;67829;51.968;5.684;2023-04-06T05:00:11;7.8;46.3
78536;SHT31;67829;51.968;5.684;2023-04-06T05:02:40;7.7;46.3
78536;SHT31;67829;51.968;5.684;2023-04-06T05:05:09;7.7;46.5
78536;SHT31;67829;51.968;5.684;2023-04-06T05:07:38;7.7;46.6
78536;SHT31;67829;51.968;5.684;2023-04-06T05:10:07;7.7;46.7
78536;SHT31;67829;51.968;5.684;2023-04-06T05:12:37;7.7;46.8
78536;SHT31;67829;51.968;5.684;2023-04-06T05:15:06;7.6;46.9
78536;SHT31;67829;51.968;5.684;2023-04-06T05:17:35;7.6;46.8
78536;SHT31;67829;51.968;5.684;2023-04-06T05:20:04;7.6;47.0
78536;SHT31;67829;51.968;5.684;2023-04-06T05:22:33;7.6;47.0
78536;SHT31;67829;51.968;5.684;2023-04-06T05:25:03;7.6;47.3
78536;SHT31;67829;51.968;5.684;2023-04-06T05:27:31;7.6;47.0
78536;SHT31;67829;51.968;5.684;2023-04-06T05:30:00;7.6;47.2
78536;SHT31;67829;51.968;5.684;2023-04-06T05:32:29;7.6;47.6
78536;SHT31;67829;51.968;5.684;2023-04-06T05:34:57;7.6;47.3
78536;SHT31;67829;51.968;5.684;2023-04-06T05:37:26;7.6;47.2
78536;SHT31;67829;51.968;5.684;2023-04-06T05:39:56;7.6;47.8
78536;SHT31;67829;51.968;5.684;2023-04-06T05:42:25;7.6;47.7
78536;SHT31;67829;51.968;5.684;2023-04-06T05:44:54;7.6;47.7
78536;SHT31;67829;51.968;5.684;2023-04-06T05:47:23;7.7;47.8
78536;SHT31;67829;51.968;5.684;2023-04-06T05:49:54;7.7;48.2
78536;SHT31;67829;51.968;5.684;2023-04-06T05:52:22;7.7;47.8
78536;SHT31;67829;51.968;5.684;2023-04-06T05:54:51;7.7;47.9
78536;SHT31;67829;51.968;5.684;2023-04-06T05:57:20;7.7;48.1
78536;SHT31;67829;51.968;5.684;2023-04-06T05:59:49;7.8;48.1
78536;SHT31;67829;51.968;5.684;2023-04-06T06:02:17;7.8;47.8
78536;SHT31;67829;51.968;5.684;2023-04-06T06:04:46;7.8;48.0
78536;SHT31;67829;51.968;5.684;2023-04-06T06:07:14;7.9;48.0
78536;SHT31;67829;51.968;5.684;2023-04-06T06:09:43;7.9;47.9
78536;SHT31;67829;51.968;5.684;2023-04-06T06:12:12;8.0;48.0
78536;SHT31;67829;51.968;5.684;2023-04-06T06:14:40;8.0;48.0
78536;SHT31;67829;51.968;5.684;2023-04-06T06:17:09;8.1;47.9
78536;SHT31;67829;51.968;5.684;2023-04-06T06:19:39;8.1;48.0
78536;SHT31;67829;51.968;5.684;2023-04-06T06:22:08;8.1;48.0
78536;SHT31;67829;51.968;5.684;2023-04-06T06:24:36;8.2;48.0
78536;SHT31;67829;51.968;5.684;2023-04-06T06:27:05;8.2;48.4
78536;SHT31;67829;51.968;5.684;2023-04-06T06:29:34;8.2;48.2
78536;SHT31;67829;51.968;5.684;2023-04-06T06:32:02;8.3;48.5
78536;SHT31;67829;51.968;5.684;2023-04-06T06:34:31;8.3;47.9
78536;SHT31;67829;51.968;5.684;2023-04-06T06:37:00;8.3;47.9
78536;SHT31;67829;51.968;5.684;2023-04-06T06:39:29;8.4;48.2
78536;SHT31;67829;51.968;5.684;2023-04-06T06:41:57;8.4;48.2
78536;SHT31;67829;51.968;5.684;2023-04-06T06:44:27;8.4;48.3
78536;SHT31;67829;51.968;5.684;2023-04-06T06:46:57;8.4;48.6
78536;SHT31;67829;51.968;5.684;2023-04-06T06:49:26;8.5;49.1
78536;SHT31;67829;51.968;5.684;2023-04-06T06:51:57;8.5;49.2
78536;SHT31;67829;51.968;5.684;2023-04-06T06:54:26;8.5;49.3
78536;SHT31;67829;51.968;5.684;2023-04-06T06:56:54;8.5;49.1
78536;SHT31;67829;51.968;5.684;2023-04-06T06:59:23;8.5;49.4
78536;SHT31;67829;51.968;5.684;2023-04-06T07:01:53;8.6;49.4
78536;SHT31;67829;51.968;5.684;2023-04-06T07:04:22;8.6;49.7
78536;SHT31;67829;51.968;5.684;2023-04-06T07:06:51;8.6;50.2
78536;SHT31;67829;51.968;5.684;2023-04-06T07:09:19;8.6;50.7
78536;SHT31;67829;51.968;5.684;2023-04-06T07:11:48;8.7;50.5
78536;SHT31;67829;51.968;5.684;2023-04-06T07:14:17;8.7;51.0
78536;SHT31;67829;51.968;5.684;2023-04-06T07:16:45;8.8;51.4
78536;SHT31;67829;51.968;5.684;2023-04-06T07:19:16;8.8;51.8
78536;SHT31;67829;51.968;5.684;2023-04-06T07:21:44;8.9;51.5
78536;SHT31;67829;51.968;5.684;2023-04-06T07:24:15;9.0;52.1
78536;SHT31;67829;51.968;5.684;2023-04-06T07:26:44;9.0;52.6
78536;SHT31;67829;51.968;5.684;2023-04-06T07:29:12;9.1;52.2
78536;SHT31;67829;51.968;5.684;2023-04-06T07:31:41;9.2;51.6
78536;SHT31;67829;51.968;5.684;2023-04-06T07:34:09;9.3;51.7
78536;SHT31;67829;51.968;5.684;2023-04-06T07:36:38;9.3;50.9
78536;SHT31;67829;51.968;5.684;2023-04-06T07:39:07;9.4;50.8
78536;SHT31;67829;51.968;5.684;2023-04-06T07:41:35;9.5;49.7
78536;SHT31;67829;51.968;5.684;2023-04-06T07:44:04;9.5;50.3
78536;SHT31;67829;51.968;5.684;2023-04-06T07:46:33;9.6;49.4
78536;SHT31;67829;51.968;5.684;2023-04-06T07:49:02;9.6;48.6
78536;SHT31;67829;51.968;5.684;2023-04-06T07:51:31;9.7;47.9
78536;SHT31;67829;51.968;5.684;2023-04-06T07:53:59;9.7;47.6
78536;SHT31;67829;51.968;5.684;2023-04-06T07:56:27;9.8;47.5
78536;SHT31;67829;51.968;5.684;2023-04-06T07:58:56;9.8;47.6
78536;SHT31;67829;51.968;5.684;2023-04-06T08:01:25;9.8;47.4
78536;SHT31;67829;51.968;5.684;2023-04-06T08:03:53;9.8;47.6
78536;SHT31;67829;51.968;5.684;2023-04-06T08:06:22;9.9;47.4
78536;SHT31;67829;51.968;5.684;2023-04-06T08:08:51;9.9;47.9
78536;SHT31;67829;51.968;5.684;2023-04-06T08:11:19;9.9;48.1
78536;SHT31;67829;51.968;5.684;2023-04-06T08:13:48;9.9;48.0
78536;SHT31;67829;51.968;5.684;2023-04-06T08:16:17;10.0;47.9
78536;SHT31;67829;51.968;5.684;2023-04-06T08:18:45;10.0;47.2
78536;SHT31;67829;51.968;5.684;2023-04-06T08:21:14;10.0;48.0
78536;SHT31;67829;51.968;5.684;2023-04-06T08:23:43;10.1;48.3
78536;SHT31;67829;51.968;5.684;2023-04-06T08:26:12;10.1;47.9
78536;SHT31;67829;51.968;5.684;2023-04-06T08:28:43;10.2;47.9
78536;SHT31;67829;51.968;5.684;2023-04-06T08:31:11;10.2;48.0
78536;SHT31;67829;51.968;5.684;2023-04-06T08:33:40;10.3;48.5
78536;SHT31;67829;51.968;5.684;2023-04-06T08:36:09;10.3;48.5
78536;SHT31;67829;51.968;5.684;2023-04-06T08:38:39;10.4;48.4
78536;SHT31;67829;51.968;5.684;2023-04-06T08:41:12;10.4;48.0
78536;SHT31;67829;51.968;5.684;2023-04-06T08:43:47;10.5;48.4
78536;SHT31;67829;51.968;5.684;2023-04-06T08:46:17;10.6;47.4
78536;SHT31;67829;51.968;5.684;2023-04-06T08:48:47;10.7;47.7
78536;SHT31;67829;51.968;5.684;2023-04-06T08:51:17;10.7;47.6
78536;SHT31;67829;51.968;5.684;2023-04-06T08:53:47;10.8;47.6
78536;SHT31;67829;51.968;5.684;2023-04-06T08:56:17;10.9;47.6
78536;SHT31;67829;51.968;5.684;2023-04-06T08:58:47;10.9;48.0
78536;SHT31;67829;51.968;5.684;2023-04-06T09:01:20;11.0;48.3
78536;SHT31;67829;51.968;5.684;2023-04-06T09:03:51;11.0;48.4
78536;SHT31;67829;51.968;5.684;2023-04-06T09:06:22;11.1;48.6
78536;SHT31;67829;51.968;5.684;2023-04-06T09:08:53;11.2;47.7
78536;SHT31;67829;51.968;5.684;2023-04-06T09:11:22;11.3;47.1
78536;SHT31;67829;51.968;5.684;2023-04-06T09:13:52;11.3;46.7
78536;SHT31;67829;51.968;5.684;2023-04-06T09:16:22;11.4;46.7
78536;SHT31;67829;51.968;5.684;2023-04-06T09:18:52;11.4;47.4
78536;SHT31;67829;51.968;5.684;2023-04-06T09:21:20;11.5;48.0
78536;SHT31;67829;51.968;5.684;2023-04-06T09:24:00;11.5;48.2
78536;SHT31;67829;51.968;5.684;2023-04-06T09:26:29;11.6;48.3
78536;SHT31;67829;51.968;5.684;2023-04-06T09:29:00;11.6;47.5
78536;SHT31;67829;51.968;5.684;2023-04-06T09:31:30;11.7;47.3
78536;SHT31;67829;51.968;5.684;2023-04-06T09:34:00;11.8;47.1
78536;SHT31;67829;51.968;5.684;2023-04-06T09:36:34;11.8;48.1
78536;SHT31;67829;51.968;5.684;2023-04-06T09:39:05;11.9;47.9
78536;SHT31;67829;51.968;5.684;2023-04-06T09:41:35;11.9;47.2
78536;SHT31;67829;51.968;5.684;2023-04-06T09:44:05;12.0;47.4
78536;SHT31;67829;51.968;5.684;2023-04-06T09:46:36;12.0;48.1
78536;SHT31;67829;51.968;5.684;2023-04-06T09:49:07;12.1;47.1
78536;SHT31;67829;51.968;5.684;2023-04-06T09:51:38;12.1;47.0
78536;SHT31;67829;51.968;5.684;2023-04-06T09:54:08;12.2;46.8
78536;SHT31;67829;51.968;5.684;2023-04-06T09:56:47;12.2;47.2
78536;SHT31;67829;51.968;5.684;2023-04-06T09:59:23;12.3;46.8
78536;SHT31;67829;51.968;5.684;2023-04-06T10:01:58;12.3;47.1
78536;SHT31;67829;51.968;5.684;2023-04-06T10:04:34;12.3;46.5
78536;SHT31;67829;51.968;5.684;2023-04-06T10:07:06;12.3;46.5
78536;SHT31;67829;51.968;5.684;2023-04-06T10:09:38;12.3;46.3
78536;SHT31;67829;51.968;5.684;2023-04-06T10:12:07;12.3;46.7
78536;SHT31;67829;51.968;5.684;2023-04-06T10:14:36;12.4;47.6
78536;SHT31;67829;51.968;5.684;2023-04-06T10:17:06;12.4;46.5
78536;SHT31;67829;51.968;5.684;2023-04-06T10:19:44;12.4;46.7
78536;SHT31;67829;51.968;5.684;2023-04-06T10:22:21;12.4;46.6
78536;SHT31;67829;51.968;5.684;2023-04-06T10:24:52;12.5;47.1
78536;SHT31;67829;51.968;5.684;2023-04-06T10:27:30;12.5;47.5
78536;SHT31;67829;51.968;5.684;2023-04-06T10:30:03;12.6;47.4
78536;SHT31;67829;51.968;5.684;2023-04-06T10:32:34;12.6;47.6
78536;SHT31;67829;51.968;5.684;2023-04-06T10:35:08;12.7;48.3
78536;SHT31;67829;51.968;5.684;2023-04-06T10:37:52;12.7;47.6
78536;SHT31;67829;51.968;5.684;2023-04-06T10:40:23;12.8;48.6
78536;SHT31;67829;51.968;5.684;2023-04-06T10:42:54;12.8;48.5
78536;SHT31;67829;51.968;5.684;2023-04-06T10:45:25;12.9;47.8
78536;SHT31;67829;51.968;5.684;2023-04-06T10:47:55;12.9;48.0
78536;SHT31;67829;51.968;5.684;2023-04-06T10:50:24;13.0;48.8
78536;SHT31;67829;51.968;5.684;2023-04-06T10:53:02;13.0;48.5
78536;SHT31;67829;51.968;5.684;2023-04-06T10:55:32;13.1;48.8
78536;SHT31;67829;51.968;5.684;2023-04-06T10:58:00;13.1;50.0
78536;SHT31;67829;51.968;5.684;2023-04-06T11:00:29;13.2;50.8
78536;SHT31;67829;51.968;5.684;2023-04-06T11:03:01;13.2;51.8
78536;SHT31;67829;51.968;5.684;2023-04-06T11:05:30;13.2;52.2
78536;SHT31;67829;51.968;5.684;2023-04-06T11:07:59;13.3;52.9
78536;SHT31;67829;51.968;5.684;2023-04-06T11:10:29;13.3;54.0
78536;SHT31;67829;51.968;5.684;2023-04-06T11:12:58;13.4;54.1
78536;SHT31;67829;51.968;5.684;2023-04-06T11:15:36;13.5;54.3
78536;SHT31;67829;51.968;5.684;2023-04-06T11:18:05;13.5;53.6
78536;SHT31;67829;51.968;5.684;2023-04-06T11:20:34;13.5;54.1
78536;SHT31;67829;51.968;5.684;2023-04-06T11:23:03;13.5;54.0
78536;SHT31;67829;51.968;5.684;2023-04-06T11:25:34;13.4;55.0
78536;SHT31;67829;51.968;5.684;2023-04-06T11:28:02;13.4;55.5
78536;SHT31;67829;51.968;5.684;2023-04-06T11:30:32;13.4;55.7
78536;SHT31;67829;51.968;5.684;2023-04-06T11:33:02;13.3;55.9
78536;SHT31;67829;51.968;5.684;2023-04-06T11:35:31;13.3;56.2
78536;SHT31;67829;51.968;5.684;2023-04-06T11:38:04;13.2;55.1
78536;SHT31;67829;51.968;5.684;2023-04-06T11:40:34;13.2;55.6
78536;SHT31;67829;51.968;5.684;2023-04-06T11:43:04;13.2;55.1
78536;SHT31;67829;51.968;5.684;2023-04-06T11:45:41;13.1;55.3
78536;SHT31;67829;51.968;5.684;2023-04-06T11:48:19;13.1;55.8
78536;SHT31;67829;51.968;5.684;2023-04-06T11:50:58;13.1;56.0
78536;SHT31;67829;51.968;5.684;2023-04-06T11:53:27;13.0;56.5
78536;SHT31;67829;51.968;5.684;2023-04-06T11:55:57;13.0;57.2
78536;SHT31;67829;51.968;5.684;2023-04-06T11:58:26;13.0;57.8
78536;SHT31;67829;51.968;5.684;2023-04-06T12:01:05;12.9;58.0
78536;SHT31;67829;51.968;5.684;2023-04-06T12:03:33;12.9;59.7
78536;SHT31;67829;51.968;5.684;2023-04-06T12:06:02;12.9;59.1
78536;SHT31;67829;51.968;5.684;2023-04-06T12:08:30;12.9;57.5
78536;SHT31;67829;51.968;5.684;2023-04-06T12:10:59;12.8;56.7
78536;SHT31;67829;51.968;5.684;2023-04-06T12:13:28;12.8;57.0
78536;SHT31;67829;51.968;5.684;2023-04-06T12:15:56;12.8;57.1
78536;SHT31;67829;51.968;5.684;2023-04-06T12:18:25;12.7;57.3
78536;SHT31;67829;51.968;5.684;2023-04-06T12:20:54;12.7;57.0
78536;SHT31;67829;51.968;5.684;2023-04-06T12:23:22;12.7;57.7
78536;SHT31;67829;51.968;5.684;2023-04-06T12:25:51;12.6;57.5
78536;SHT31;67829;51.968;5.684;2023-04-06T12:28:21;12.6;58.5
78536;SHT31;67829;51.968;5.684;2023-04-06T12:30:55;12.6;59.1
78536;SHT31;67829;51.968;5.684;2023-04-06T12:33:23;12.6;58.6
78536;SHT31;67829;51.968;5.684;2023-04-06T12:35:52;12.6;58.3
78536;SHT31;67829;51.968;5.684;2023-04-06T12:38:20;12.5;59.4
78536;SHT31;67829;51.968;5.684;2023-04-06T12:40:49;12.5;59.2
78536;SHT31;67829;51.968;5.684;2023-04-06T12:43:18;12.5;59.4
78536;SHT31;67829;51.968;5.684;2023-04-06T12:45:47;12.5;59.5
78536;SHT31;67829;51.968;5.684;2023-04-06T12:48:15;12.4;60.2
78536;SHT31;67829;51.968;5.684;2023-04-06T12:50:44;12.4;59.5
78536;SHT31;67829;51.968;5.684;2023-04-06T12:53:12;12.4;60.2
78536;SHT31;67829;51.968;5.684;2023-04-06T12:55:41;12.4;60.0
78536;SHT31;67829;51.968;5.684;2023-04-06T12:58:09;12.4;59.8
78536;SHT31;67829;51.968;5.684;2023-04-06T13:00:38;12.3;60.8
78536;SHT31;67829;51.968;5.684;2023-04-06T13:03:06;12.3;60.2
78536;SHT31;67829;51.968;5.684;2023-04-06T13:05:35;12.3;60.1
78536;SHT31;67829;51.968;5.684;2023-04-06T13:08:04;12.3;60.3
78536;SHT31;67829;51.968;5.684;2023-04-06T13:10:32;12.2;60.3
78536;SHT31;67829;51.968;5.684;2023-04-06T13:13:01;12.2;60.5
78536;SHT31;67829;51.968;5.684;2023-04-06T13:15:29;12.2;60.8
78536;SHT31;67829;51.968;5.684;2023-04-06T13:17:58;12.2;61.8
78536;SHT31;67829;51.968;5.684;2023-04-06T13:20:27;12.2;61.7
78536;SHT31;67829;51.968;5.684;2023-04-06T13:22:56;12.1;61.3
78536;SHT31;67829;51.968;5.684;2023-04-06T13:25:25;12.1;60.8
78536;SHT31;67829;51.968;5.684;2023-04-06T13:27:54;12.1;61.2
78536;SHT31;67829;51.968;5.684;2023-04-06T13:30:23;12.1;61.2
78536;SHT31;67829;51.968;5.684;2023-04-06T13:32:52;12.1;61.4
78536;SHT31;67829;51.968;5.684;2023-04-06T13:35:20;12.1;61.3
78536;SHT31;67829;51.968;5.684;2023-04-06T13:37:51;12.1;61.4
78536;SHT31;67829;51.968;5.684;2023-04-06T13:40:20;12.1;61.4
78536;SHT31;67829;51.968;5.684;2023-04-06T13:42:49;12.1;61.5
78536;SHT31;67829;51.968;5.684;2023-04-06T13:45:18;12.1;61.8
78536;SHT31;67829;51.968;5.684;2023-04-06T13:47:46;12.1;61.6
78536;SHT31;67829;51.968;5.684;2023-04-06T13:50:15;12.0;61.3
78536;SHT31;67829;51.968;5.684;2023-04-06T13:52:43;12.0;62.1
78536;SHT31;67829;51.968;5.684;2023-04-06T13:55:12;12.0;62.2
78536;SHT31;67829;51.968;5.684;2023-04-06T13:57:41;12.0;62.4
78536;SHT31;67829;51.968;5.684;2023-04-06T14:00:10;12.0;62.3
78536;SHT31;67829;51.968;5.684;2023-04-06T14:02:43;12.0;63.3
78536;SHT31;67829;51.968;5.684;2023-04-06T14:05:12;12.0;62.9
78536;SHT31;67829;51.968;5.684;2023-04-06T14:07:41;11.9;63.0
78536;SHT31;67829;51.968;5.684;2023-04-06T14:10:10;11.9;63.4
78536;SHT31;67829;51.968;5.684;2023-04-06T14:12:40;11.9;63.3
78536;SHT31;67829;51.968;5.684;2023-04-06T14:15:11;11.9;63.1
78536;SHT31;67829;51.968;5.684;2023-04-06T14:17:40;11.9;63.8
78536;SHT31;67829;51.968;5.684;2023-04-06T14:20:10;11.9;63.7
78536;SHT31;67829;51.968;5.684;2023-04-06T14:22:41;11.9;63.7
78536;SHT31;67829;51.968;5.684;2023-04-06T14:25:10;11.9;64.2
78536;SHT31;67829;51.968;5.684;2023-04-06T14:27:39;11.9;64.6
78536;SHT31;67829;51.968;5.684;2023-04-06T14:30:08;11.9;63.8
78536;SHT31;67829;51.968;5.684;2023-04-06T14:32:37;11.9;64.3
78536;SHT31;67829;51.968;5.684;2023-04-06T14:35:07;11.8;64.0
78536;SHT31;67829;51.968;5.684;2023-04-06T14:37:36;11.8;64.1
78536;SHT31;67829;51.968;5.684;2023-04-06T14:40:05;11.8;64.0
78536;SHT31;67829;51.968;5.684;2023-04-06T14:42:35;11.8;64.0
78536;SHT31;67829;51.968;5.684;2023-04-06T14:45:04;11.8;64.2
78536;SHT31;67829;51.968;5.684;2023-04-06T14:47:34;11.8;64.4
78536;SHT31;67829;51.968;5.684;2023-04-06T14:50:02;11.7;65.1
78536;SHT31;67829;51.968;5.684;2023-04-06T14:52:32;11.7;65.0
78536;SHT31;67829;51.968;5.684;2023-04-06T14:55:01;11.7;65.0
78536;SHT31;67829;51.968;5.684;2023-04-06T14:57:30;11.7;65.4
78536;SHT31;67829;51.968;5.684;2023-04-06T15:00:01;11.7;65.7
78536;SHT31;67829;51.968;5.684;2023-04-06T15:02:29;11.6;65.8
78536;SHT31;67829;51.968;5.684;2023-04-06T15:04:59;11.6;65.9
78536;SHT31;67829;51.968;5.684;2023-04-06T15:07:27;11.6;66.0
78536;SHT31;67829;51.968;5.684;2023-04-06T15:09:56;11.6;66.6
78536;SHT31;67829;51.968;5.684;2023-04-06T15:12:24;11.6;66.1
78536;SHT31;67829;51.968;5.684;2023-04-06T15:14:55;11.6;66.7
78536;SHT31;67829;51.968;5.684;2023-04-06T15:17:24;11.6;66.5
78536;SHT31;67829;51.968;5.684;2023-04-06T15:19:53;11.6;66.3
78536;SHT31;67829;51.968;5.684;2023-04-06T15:22:22;11.6;66.3
78536;SHT31;67829;51.968;5.684;2023-04-06T15:24:50;11.6;66.2
78536;SHT31;67829;51.968;5.684;2023-04-06T15:27:19;11.6;66.3
78536;SHT31;67829;51.968;5.684;2023-04-06T15:29:48;11.6;66.3
78536;SHT31;67829;51.968;5.684;2023-04-06T15:32:16;11.6;66.4
78536;SHT31;67829;51.968;5.684;2023-04-06T15:34:47;11.6;66.2
78536;SHT31;67829;51.968;5.684;2023-04-06T15:37:17;11.6;66.4
78536;SHT31;67829;51.968;5.684;2023-04-06T15:39:46;11.5;66.4
78536;SHT31;67829;51.968;5.684;2023-04-06T15:42:14;11.5;66.9
78536;SHT31;67829;51.968;5.684;2023-04-06T15:44:43;11.5;66.9
78536;SHT31;67829;51.968;5.684;2023-04-06T15:47:11;11.5;67.1
78536;SHT31;67829;51.968;5.684;2023-04-06T15:49:40;11.5;66.9
78536;SHT31;67829;51.968;5.684;2023-04-06T15:52:08;11.5;66.9
78536;SHT31;67829;51.968;5.684;2023-04-06T15:54:37;11.5;67.2
78536;SHT31;67829;51.968;5.684;2023-04-06T15:57:06;11.5;67.5
78536;SHT31;67829;51.968;5.684;2023-04-06T15:59:35;11.4;67.7
78536;SHT31;67829;51.968;5.684;2023-04-06T16:02:03;11.4;68.1
78536;SHT31;67829;51.968;5.684;2023-04-06T16:04:32;11.4;68.2
78536;SHT31;67829;51.968;5.684;2023-04-06T16:07:00;11.4;68.3
78536;SHT31;67829;51.968;5.684;2023-04-06T16:09:29;11.3;68.7
78536;SHT31;67829;51.968;5.684;2023-04-06T16:11:57;11.3;68.9
78536;SHT31;67829;51.968;5.684;2023-04-06T16:14:27;11.3;69.1
78536;SHT31;67829;51.968;5.684;2023-04-06T16:16:56;11.3;69.0
78536;SHT31;67829;51.968;5.684;2023-04-06T16:19:24;11.3;69.4
78536;SHT31;67829;51.968;5.684;2023-04-06T16:21:53;11.2;69.4
78536;SHT31;67829;51.968;5.684;2023-04-06T16:24:23;11.2;69.5